createdAt,value
2019-02-28T00:02:11.197Z,7.40
2019-02-28T00:04:41.427Z,7.40
2019-02-28T00:07:17.566Z,7.20
2019-02-28T00:09:46.231Z,7.20
2019-02-28T00:12:16.571Z,6.90
2019-02-28T00:14:46.827Z,6.80
2019-02-28T00:17:17.109Z,6.80
2019-02-28T00:19:47.351Z,6.90
2019-02-28T00:22:17.553Z,6.90
2019-02-28T00:24:47.636Z,6.90
2019-02-28T00:27:20.970Z,6.70
2019-02-28T00:29:49.857Z,6.70
2019-02-28T00:32:21.372Z,6.80
2019-02-28T00:34:52.086Z,6.80
2019-02-28T00:37:24.651Z,6.80
2019-02-28T00:39:54.330Z,6.40
2019-02-28T00:42:24.695Z,6.20
2019-02-28T00:44:55.081Z,6.00
2019-02-28T00:47:25.168Z,6.00
2019-02-28T00:50:01.820Z,6.10
2019-02-28T00:52:35.378Z,6.50
2019-02-28T00:55:04.096Z,6.70
2019-02-28T00:57:34.437Z,6.70
2019-02-28T01:00:06.273Z,6.70
2019-02-28T01:02:36.719Z,6.70
2019-02-28T01:05:07.159Z,6.80
2019-02-28T01:07:37.524Z,6.90
2019-02-28T01:10:09.384Z,7.20
2019-02-28T01:12:39.607Z,7.10
2019-02-28T01:15:11.091Z,6.70
2019-02-28T01:17:41.382Z,6.60
2019-02-28T01:20:14.892Z,6.80
2019-02-28T01:22:43.987Z,6.80
2019-02-28T01:25:14.643Z,6.50
2019-02-28T01:27:44.702Z,6.30
2019-02-28T01:30:15.337Z,6.20
2019-02-28T01:32:49.927Z,6.00
2019-02-28T01:35:17.851Z,6.00
2019-02-28T01:37:48.073Z,6.00
2019-02-28T01:40:18.294Z,6.00
2019-02-28T01:42:54.018Z,5.90
2019-02-28T01:45:20.399Z,5.70
2019-02-28T01:47:51.759Z,5.60
2019-02-28T01:50:22.698Z,5.60
2019-02-28T01:52:53.090Z,5.70
2019-02-28T01:55:23.415Z,5.90
2019-02-28T01:57:53.756Z,6.00
2019-02-28T02:00:24.485Z,5.90
2019-02-28T02:02:54.714Z,6.00
2019-02-28T02:05:24.919Z,6.00
2019-02-28T02:07:54.935Z,6.10
2019-02-28T02:10:25.167Z,6.00
2019-02-28T02:12:55.584Z,5.90
2019-02-28T02:15:25.839Z,6.20
2019-02-28T02:17:56.029Z,6.60
2019-02-28T02:20:26.919Z,6.60
2019-02-28T02:22:57.293Z,6.80
2019-02-28T02:25:27.499Z,6.80
2019-02-28T02:27:58.019Z,6.70
2019-02-28T02:30:28.479Z,6.60
2019-02-28T02:32:58.838Z,6.70
2019-02-28T02:35:29.124Z,6.60
2019-02-28T02:38:03.677Z,6.30
2019-02-28T02:40:31.185Z,6.20
2019-02-28T02:43:01.628Z,6.10
2019-02-28T02:45:31.694Z,6.00
2019-02-28T02:48:05.293Z,5.90
2019-02-28T02:50:35.769Z,5.70
2019-02-28T02:53:06.589Z,5.70
2019-02-28T02:55:37.043Z,5.60
2019-02-28T02:58:07.222Z,5.50
2019-02-28T03:00:37.356Z,5.60
2019-02-28T03:03:07.909Z,5.50
2019-02-28T03:05:38.168Z,5.70
2019-02-28T03:08:08.457Z,5.70
2019-02-28T03:10:38.886Z,5.50
2019-02-28T03:13:09.207Z,5.50
2019-02-28T03:15:39.428Z,5.60
2019-02-28T03:18:10.151Z,5.60
2019-02-28T03:20:42.326Z,5.50
2019-02-28T03:23:12.459Z,5.50
2019-02-28T03:25:42.889Z,5.50
2019-02-28T03:28:14.028Z,5.70
2019-02-28T03:33:27.778Z,5.90
2019-02-28T03:35:55.046Z,5.90
2019-02-28T03:38:25.148Z,6.00
2019-02-28T03:40:55.678Z,6.20
2019-02-28T03:43:25.883Z,5.80
2019-02-28T03:45:56.160Z,5.80
2019-02-28T03:48:26.509Z,5.50
2019-02-28T03:50:56.768Z,5.40
2019-02-28T03:53:27.002Z,5.30
2019-02-28T03:55:57.252Z,5.10
2019-02-28T03:58:27.493Z,5.00
2019-02-28T04:00:57.764Z,5.10
2019-02-28T04:03:33.441Z,5.30
2019-02-28T04:06:03.608Z,5.40
2019-02-28T04:08:32.441Z,5.40
2019-02-28T04:11:02.602Z,5.50
2019-02-28T04:13:33.004Z,5.20
2019-02-28T04:16:09.246Z,5.20
2019-02-28T04:18:35.154Z,5.30
2019-02-28T04:21:10.057Z,5.30
2019-02-28T04:23:37.453Z,5.40
2019-02-28T04:26:07.683Z,5.40
2019-02-28T04:28:37.783Z,5.20
2019-02-28T04:31:08.018Z,5.20
2019-02-28T04:33:39.346Z,5.20
2019-02-28T04:36:09.679Z,5.00
2019-02-28T04:38:39.875Z,4.90
2019-02-28T04:41:10.279Z,5.00
2019-02-28T04:43:41.552Z,4.90
2019-02-28T04:46:12.527Z,5.00
2019-02-28T04:48:45.664Z,5.10
2019-02-28T04:51:14.527Z,5.00
2019-02-28T04:53:44.963Z,4.90
2019-02-28T04:56:15.139Z,5.00
2019-02-28T04:58:45.524Z,5.20
2019-02-28T05:01:15.765Z,4.90
2019-02-28T05:03:46.111Z,4.90
2019-02-28T05:06:18.342Z,5.00
2019-02-28T05:08:48.706Z,4.90
2019-02-28T05:11:18.863Z,4.80
2019-02-28T05:13:49.415Z,4.90
2019-02-28T05:16:38.420Z,4.90
2019-02-28T05:19:10.710Z,4.80
2019-02-28T05:21:40.911Z,4.70
2019-02-28T05:24:11.383Z,4.60
2019-02-28T05:26:41.591Z,4.30
2019-02-28T05:29:12.826Z,4.40
2019-02-28T05:31:43.335Z,4.70
2019-02-28T05:34:16.029Z,4.60
2019-02-28T05:36:45.966Z,4.70
2019-02-28T05:39:16.205Z,4.80
2019-02-28T05:41:49.529Z,4.80
2019-02-28T05:44:18.545Z,4.70
2019-02-28T05:46:48.762Z,4.70
2019-02-28T05:49:19.107Z,4.50
2019-02-28T05:51:49.323Z,4.30
2019-02-28T05:54:20.432Z,4.20
2019-02-28T05:56:50.656Z,4.10
2019-02-28T05:59:26.145Z,3.90
2019-02-28T06:01:52.764Z,3.80
2019-02-28T06:04:23.286Z,3.70
2019-02-28T06:06:54.701Z,3.60
2019-02-28T06:09:26.085Z,3.60
2019-02-28T06:11:56.209Z,3.60
2019-02-28T06:14:27.637Z,3.60
2019-02-28T06:16:57.991Z,3.40
2019-02-28T06:19:28.327Z,3.30
2019-02-28T06:21:59.426Z,3.30
2019-02-28T06:24:31.221Z,3.30
2019-02-28T06:27:03.729Z,3.50
2019-02-28T06:29:33.327Z,3.60
2019-02-28T06:32:03.629Z,3.90
2019-02-28T06:34:34.146Z,4.20
2019-02-28T06:37:04.526Z,4.20
2019-02-28T06:39:35.199Z,4.50
2019-02-28T06:42:24.060Z,4.70
2019-02-28T06:44:53.979Z,5.00
2019-02-28T06:47:24.000Z,4.90
2019-02-28T06:49:54.124Z,4.70
2019-02-28T06:52:25.258Z,4.50
2019-02-28T06:54:56.240Z,4.50
2019-02-28T06:57:27.439Z,4.60
2019-02-28T06:59:58.077Z,4.70
2019-02-28T07:02:28.530Z,4.50
2019-02-28T07:05:00.275Z,4.40
2019-02-28T07:07:30.596Z,4.50
2019-02-28T07:10:01.215Z,4.50
2019-02-28T07:12:33.149Z,4.60
2019-02-28T07:15:03.501Z,4.60
2019-02-28T07:17:33.738Z,4.50
2019-02-28T07:20:04.002Z,4.40
2019-02-28T07:22:34.353Z,4.70
2019-02-28T07:25:04.923Z,4.90
2019-02-28T07:27:35.211Z,4.80
2019-02-28T07:30:06.398Z,4.80
2019-02-28T07:32:36.628Z,4.90
2019-02-28T07:35:07.370Z,5.10
2019-02-28T07:37:37.657Z,5.40
2019-02-28T07:40:09.107Z,5.80
2019-02-28T07:42:39.449Z,5.90
2019-02-28T07:45:12.132Z,6.10
2019-02-28T07:47:42.759Z,6.50
2019-02-28T07:50:13.163Z,6.40
2019-02-28T07:52:43.505Z,6.40
2019-02-28T07:55:13.964Z,6.30
2019-02-28T07:57:44.271Z,6.50
2019-02-28T08:00:18.418Z,6.60
2019-02-28T08:02:49.038Z,6.80
2019-02-28T08:05:19.422Z,7.00
2019-02-28T08:07:52.663Z,7.20
2019-02-28T08:10:22.336Z,7.30
2019-02-28T08:12:52.636Z,7.30
2019-02-28T08:15:23.618Z,7.30
2019-02-28T08:17:54.023Z,7.40
2019-02-28T08:20:24.327Z,7.50
2019-02-28T08:22:56.897Z,7.70
2019-02-28T08:25:26.652Z,7.80
2019-02-28T08:27:59.820Z,8.00
2019-02-28T08:30:28.754Z,8.20
2019-02-28T08:32:58.918Z,8.30
2019-02-28T08:35:34.061Z,8.50
2019-02-28T08:38:01.283Z,8.60
2019-02-28T08:40:31.427Z,8.70
2019-02-28T08:43:01.671Z,8.90
2019-02-28T08:45:33.498Z,8.90
2019-02-28T08:48:03.816Z,9.00
2019-02-28T08:50:34.191Z,9.00
2019-02-28T08:53:04.492Z,9.10
2019-02-28T08:55:38.338Z,9.10
2019-02-28T08:58:07.772Z,9.10
2019-02-28T09:00:38.097Z,9.10
2019-02-28T09:03:08.408Z,9.30
2019-02-28T09:05:38.766Z,9.50
2019-02-28T09:08:22.448Z,9.60
2019-02-28T09:10:51.855Z,9.70
2019-02-28T09:13:22.350Z,9.80
2019-02-28T09:15:52.733Z,10.00
2019-02-28T09:18:23.193Z,10.30
2019-02-28T09:20:54.029Z,10.30
2019-02-28T09:23:24.610Z,10.30
2019-02-28T09:25:56.738Z,10.40
2019-02-28T09:28:26.741Z,10.40
2019-02-28T09:30:57.122Z,10.60
2019-02-28T09:33:27.565Z,10.60
2019-02-28T09:35:57.872Z,10.70
2019-02-28T09:38:28.430Z,10.70
2019-02-28T09:41:01.415Z,10.90
2019-02-28T09:43:30.729Z,11.00
2019-02-28T09:46:01.130Z,11.20
2019-02-28T09:48:33.993Z,11.40
2019-02-28T09:51:03.522Z,11.70
2019-02-28T09:53:33.867Z,11.80
2019-02-28T09:56:09.070Z,11.80
2019-02-28T09:58:36.129Z,11.70
2019-02-28T10:01:07.024Z,11.90
2019-02-28T10:03:37.555Z,11.80
2019-02-28T10:06:08.011Z,12.10
2019-02-28T10:08:38.468Z,12.00
2019-02-28T10:11:09.095Z,12.10
2019-02-28T10:13:39.513Z,12.40
2019-02-28T10:16:09.815Z,12.30
2019-02-28T10:18:40.146Z,12.60
2019-02-28T10:21:10.539Z,12.70
2019-02-28T10:23:42.810Z,12.90
2019-02-28T10:26:14.308Z,13.40
2019-02-28T10:28:45.108Z,13.30
2019-02-28T10:31:15.531Z,13.30
2019-02-28T10:33:46.119Z,13.40
2019-02-28T10:36:16.395Z,13.80
2019-02-28T10:38:47.090Z,13.70
2019-02-28T10:41:17.608Z,14.10
2019-02-28T10:43:52.070Z,14.20
2019-02-28T10:46:20.341Z,14.10
2019-02-28T10:48:51.165Z,14.00
2019-02-28T10:51:21.685Z,14.30
2019-02-28T10:53:52.106Z,14.60
2019-02-28T10:56:22.595Z,14.70
2019-02-28T10:58:53.841Z,14.90
2019-02-28T11:01:24.750Z,15.20
2019-02-28T11:03:55.474Z,15.10
2019-02-28T11:06:28.282Z,15.30
2019-02-28T11:08:57.900Z,15.60
2019-02-28T11:11:28.282Z,16.00
2019-02-28T11:13:59.155Z,16.20
2019-02-28T11:16:29.858Z,16.40
2019-02-28T11:19:00.493Z,16.40
2019-02-28T11:21:30.770Z,16.50
2019-02-28T11:24:01.198Z,16.70
2019-02-28T11:26:31.689Z,16.70
2019-02-28T11:29:03.136Z,16.90
2019-02-28T11:31:34.292Z,17.00
2019-02-28T11:34:04.697Z,17.20
2019-02-28T11:36:35.094Z,17.40
2019-02-28T11:39:07.317Z,17.10
2019-02-28T11:41:37.665Z,17.40
2019-02-28T11:44:09.236Z,18.90
2019-02-28T11:46:40.360Z,21.10
2019-02-28T11:49:10.610Z,22.50
2019-02-28T11:51:41.111Z,22.70
2019-02-28T11:54:12.313Z,23.10
2019-02-28T11:56:43.873Z,23.20
2019-02-28T11:59:14.240Z,23.30
2019-02-28T12:01:47.406Z,22.90
2019-02-28T12:04:16.735Z,23.40
2019-02-28T12:06:47.156Z,23.90
2019-02-28T12:09:19.263Z,24.20
2019-02-28T12:11:50.424Z,24.70
2019-02-28T12:14:21.299Z,25.40
2019-02-28T12:16:53.653Z,25.40
2019-02-28T12:19:23.738Z,25.00
2019-02-28T12:21:54.832Z,24.80
2019-02-28T12:24:25.359Z,25.00
2019-02-28T12:26:55.704Z,24.60
2019-02-28T12:29:25.988Z,25.40
2019-02-28T12:31:56.586Z,24.70
2019-02-28T12:34:28.736Z,24.80
2019-02-28T12:36:59.908Z,25.10
2019-02-28T12:39:33.389Z,23.90
2019-02-28T12:42:02.623Z,23.10
2019-02-28T12:44:32.978Z,23.10
2019-02-28T12:47:06.494Z,21.80
2019-02-28T12:49:35.456Z,21.80
2019-02-28T12:52:06.050Z,22.40
2019-02-28T12:54:36.447Z,22.10
2019-02-28T12:57:07.008Z,21.80
2019-02-28T12:59:37.409Z,21.90
2019-02-28T13:02:08.640Z,22.30
2019-02-28T13:04:38.870Z,22.80
2019-02-28T13:07:09.007Z,22.30
2019-02-28T13:09:39.874Z,22.60
2019-02-28T13:12:11.943Z,22.40
2019-02-28T13:14:41.822Z,22.50
2019-02-28T13:17:11.888Z,22.20
2019-02-28T13:19:42.121Z,22.10
2019-02-28T13:22:12.159Z,22.00
2019-02-28T13:24:42.419Z,21.90
2019-02-28T13:27:14.159Z,22.00
2019-02-28T13:29:44.095Z,21.60
2019-02-28T13:32:13.964Z,21.50
2019-02-28T13:34:43.949Z,21.20
2019-02-28T13:37:14.028Z,21.00
2019-02-28T13:39:44.782Z,21.10
2019-02-28T13:42:17.807Z,20.90
2019-02-28T13:44:47.798Z,20.60
2019-02-28T13:47:17.880Z,20.40
2019-02-28T13:49:49.829Z,20.20
2019-02-28T13:52:20.910Z,20.20
2019-02-28T13:54:51.043Z,20.40
2019-02-28T13:57:20.911Z,20.50
2019-02-28T13:59:50.832Z,20.50
2019-02-28T14:02:20.878Z,20.40
2019-02-28T14:04:50.859Z,20.30
2019-02-28T14:07:20.802Z,20.00
2019-02-28T14:09:56.998Z,20.30
2019-02-28T14:12:22.356Z,20.30
2019-02-28T14:14:52.298Z,20.40
2019-02-28T14:17:22.254Z,20.20
2019-02-28T14:19:52.745Z,20.10
2019-02-28T14:22:23.542Z,19.70
2019-02-28T14:24:53.424Z,19.50
2019-02-28T14:27:25.108Z,19.40
2019-02-28T14:29:55.063Z,19.00
2019-02-28T14:32:25.031Z,18.80
2019-02-28T14:34:57.322Z,18.50
2019-02-28T14:37:26.579Z,18.10
2019-02-28T14:39:56.529Z,17.80
2019-02-28T14:42:26.462Z,18.00
2019-02-28T14:44:56.463Z,18.10
2019-02-28T14:47:28.408Z,17.70
2019-02-28T14:49:58.008Z,17.80
2019-02-28T14:52:28.120Z,17.80
2019-02-28T14:54:58.350Z,17.60
2019-02-28T14:57:28.244Z,17.50
2019-02-28T14:59:59.985Z,17.30
2019-02-28T15:02:29.802Z,17.20
2019-02-28T15:04:59.734Z,17.20
2019-02-28T15:07:29.799Z,17.20
2019-02-28T15:10:01.770Z,17.10
2019-02-28T15:12:31.366Z,17.10
2019-02-28T15:15:01.315Z,16.90
2019-02-28T15:17:31.396Z,16.80
2019-02-28T15:20:01.531Z,16.90
2019-02-28T15:22:31.467Z,16.60
2019-02-28T15:25:01.573Z,16.60
2019-02-28T15:27:31.519Z,16.50
2019-02-28T15:30:01.467Z,16.40
2019-02-28T15:32:31.380Z,16.30
2019-02-28T15:35:01.808Z,16.50
2019-02-28T15:37:33.648Z,16.30
2019-02-28T15:40:03.338Z,16.30
2019-02-28T15:42:33.258Z,16.20
2019-02-28T15:45:03.909Z,16.10
2019-02-28T15:47:34.916Z,16.10
2019-02-28T15:50:05.648Z,16.20
2019-02-28T15:52:36.711Z,16.10
2019-02-28T15:55:07.492Z,16.00
2019-02-28T15:57:37.501Z,16.00
2019-02-28T16:00:09.674Z,15.60
2019-02-28T16:02:42.099Z,15.60
2019-02-28T16:05:11.556Z,15.70
2019-02-28T16:07:41.855Z,15.70
2019-02-28T16:10:14.215Z,15.50
2019-02-28T16:12:46.609Z,15.40
2019-02-28T16:15:17.312Z,15.30
2019-02-28T16:17:47.288Z,15.40
2019-02-28T16:20:17.360Z,15.30
2019-02-28T16:22:52.130Z,15.30
2019-02-28T16:25:24.677Z,15.30
2019-02-28T16:27:54.850Z,15.20
2019-02-28T16:30:25.019Z,15.30
2019-02-28T16:32:55.107Z,15.10
2019-02-28T16:35:25.242Z,15.10
2019-02-28T16:37:55.175Z,15.00
2019-02-28T16:40:26.884Z,15.10
2019-02-28T16:42:56.905Z,15.10
2019-02-28T16:45:30.464Z,14.90
2019-02-28T16:48:02.988Z,14.90
2019-02-28T16:50:33.163Z,14.80
2019-02-28T16:53:03.036Z,14.60
2019-02-28T16:55:33.201Z,14.70
2019-02-28T16:58:03.620Z,14.80
2019-02-28T17:00:33.645Z,14.60
2019-02-28T17:03:04.009Z,14.90
2019-02-28T17:05:35.507Z,14.80
2019-02-28T17:08:06.812Z,14.30
2019-02-28T17:10:40.216Z,14.20
2019-02-28T17:13:31.587Z,14.00
2019-02-28T17:16:37.003Z,14.10
2019-02-28T17:19:08.548Z,14.00
2019-02-28T17:21:39.724Z,14.00
2019-02-28T17:24:12.259Z,14.00
2019-02-28T17:27:02.314Z,13.80
2019-02-28T17:29:51.557Z,13.50
2019-02-28T17:32:21.754Z,13.50
2019-02-28T17:34:51.731Z,13.30
2019-02-28T17:37:25.995Z,13.10
2019-02-28T17:39:53.777Z,13.00
2019-02-28T17:42:23.747Z,13.00
2019-02-28T17:45:19.796Z,12.90
2019-02-28T17:48:37.611Z,12.90
2019-02-28T17:51:18.745Z,12.70
2019-02-28T17:54:22.430Z,12.60
2019-02-28T17:57:29.002Z,12.50
2019-02-28T18:00:41.564Z,12.40
2019-02-28T18:04:08.187Z,12.20
2019-02-28T18:07:05.273Z,12.20
2019-02-28T18:10:03.175Z,12.10
2019-02-28T18:13:08.988Z,12.00
2019-02-28T18:16:21.380Z,11.80
2019-02-28T18:19:20.067Z,11.70
2019-02-28T18:22:37.374Z,11.80
2019-02-28T18:25:34.943Z,11.80
2019-02-28T18:29:01.928Z,11.40
2019-02-28T18:31:31.995Z,11.20
2019-02-28T18:34:22.206Z,11.20
2019-02-28T18:36:55.523Z,11.20
2019-02-28T18:39:25.478Z,11.20
2019-02-28T18:41:55.553Z,11.10
2019-02-28T18:44:25.464Z,11.00
2019-02-28T18:46:55.371Z,10.90
2019-02-28T18:49:26.645Z,10.90
2019-02-28T18:51:56.982Z,10.70
2019-02-28T18:54:27.055Z,10.90
2019-02-28T18:56:57.143Z,10.80
2019-02-28T18:59:27.131Z,10.80
2019-02-28T19:01:57.150Z,10.80
2019-02-28T19:04:27.039Z,10.70
2019-02-28T19:06:57.115Z,10.60
2019-02-28T19:09:27.180Z,10.60
2019-02-28T19:11:58.236Z,10.60
2019-02-28T19:14:28.127Z,10.30
2019-02-28T19:16:58.138Z,10.40
2019-02-28T19:19:28.084Z,10.30
2019-02-28T19:21:58.217Z,10.40
2019-02-28T19:24:28.219Z,10.40
2019-02-28T19:26:58.238Z,10.40
2019-02-28T19:29:28.178Z,10.40
2019-02-28T19:31:58.620Z,10.40
2019-02-28T19:34:28.778Z,10.40
2019-02-28T19:36:59.427Z,10.30
2019-02-28T19:39:29.456Z,10.20
2019-02-28T19:41:59.529Z,10.20
2019-02-28T19:44:29.405Z,10.20
2019-02-28T19:46:59.328Z,10.10
2019-02-28T19:49:29.823Z,10.00
2019-02-28T19:51:59.823Z,10.10
2019-02-28T19:54:29.800Z,10.10
2019-02-28T19:56:59.960Z,10.30
2019-02-28T19:59:29.853Z,10.30
2019-02-28T20:01:59.833Z,10.40
2019-02-28T20:04:30.107Z,10.40
2019-02-28T20:07:00.148Z,10.40
2019-02-28T20:09:30.112Z,10.50
2019-02-28T20:11:59.997Z,10.50
2019-02-28T20:14:30.090Z,10.50
2019-02-28T20:17:00.060Z,10.40
2019-02-28T20:19:29.921Z,10.40
2019-02-28T20:21:59.840Z,10.30
2019-02-28T20:24:29.721Z,10.40
2019-02-28T20:26:59.691Z,10.50
2019-02-28T20:29:29.801Z,10.50
2019-02-28T20:32:03.184Z,10.50
2019-02-28T20:34:33.473Z,10.50
2019-02-28T20:37:03.538Z,10.60
2019-02-28T20:39:33.633Z,10.60
2019-02-28T20:42:04.097Z,10.60
2019-02-28T20:44:33.995Z,10.60
2019-02-28T20:47:03.951Z,10.50
2019-02-28T20:49:33.819Z,10.60
2019-02-28T20:52:08.321Z,10.60
2019-02-28T20:54:38.536Z,10.70
2019-02-28T20:57:08.485Z,10.80
2019-02-28T20:59:38.412Z,10.80
2019-02-28T21:02:08.619Z,10.90
2019-02-28T21:04:38.531Z,10.80
2019-02-28T21:07:09.552Z,10.80
2019-02-28T21:09:45.004Z,10.80
2019-02-28T21:12:11.268Z,10.80
2019-02-28T21:14:41.635Z,10.70
2019-02-28T21:17:11.841Z,10.70
2019-02-28T21:19:42.455Z,10.60
2019-02-28T21:22:12.823Z,10.50
2019-02-28T21:24:43.221Z,10.50
2019-02-28T21:27:19.000Z,10.40
2019-02-28T21:29:49.223Z,10.30
2019-02-28T21:32:19.539Z,10.30
2019-02-28T21:34:49.781Z,10.30
2019-02-28T21:37:22.314Z,10.20
2019-02-28T21:39:52.558Z,10.00
2019-02-28T21:42:23.000Z,9.80
2019-02-28T21:44:53.108Z,9.70
2019-02-28T21:47:23.325Z,9.60
2019-02-28T21:49:53.582Z,9.60
2019-02-28T21:52:23.719Z,9.50
2019-02-28T21:54:54.415Z,9.50
2019-02-28T21:57:24.738Z,9.50
2019-02-28T21:59:55.255Z,9.60
2019-02-28T22:02:25.507Z,9.60
2019-02-28T22:04:55.788Z,9.60
2019-02-28T22:07:26.230Z,9.60
2019-02-28T22:09:56.451Z,9.60
2019-02-28T22:12:27.593Z,9.60
2019-02-28T22:14:57.919Z,9.60
2019-02-28T22:17:28.178Z,9.50
2019-02-28T22:19:58.396Z,9.30
2019-02-28T22:22:28.539Z,9.20
2019-02-28T22:24:58.428Z,9.30
2019-02-28T22:27:28.791Z,9.40
2019-02-28T22:30:00.753Z,9.40
2019-02-28T22:32:43.376Z,9.30
2019-02-28T22:35:27.445Z,9.30
2019-02-28T22:37:57.771Z,9.40
2019-02-28T22:40:27.684Z,9.30
2019-02-28T22:42:57.912Z,9.10
2019-02-28T22:45:27.799Z,9.10
2019-02-28T22:47:57.693Z,9.10
2019-02-28T22:50:27.603Z,9.10
2019-02-28T22:52:57.485Z,9.20
2019-02-28T22:55:27.376Z,9.30
2019-02-28T22:57:57.740Z,9.20
2019-02-28T23:00:46.963Z,9.00
2019-02-28T23:03:17.284Z,9.00
2019-02-28T23:05:47.471Z,9.00
2019-02-28T23:08:17.820Z,9.00
2019-02-28T23:10:48.223Z,9.10
2019-02-28T23:13:18.494Z,9.10
2019-02-28T23:15:48.608Z,9.10
2019-02-28T23:18:18.747Z,9.10
2019-02-28T23:20:49.051Z,9.00
2019-02-28T23:23:19.113Z,9.00
2019-02-28T23:25:48.997Z,9.00
2019-02-28T23:28:30.276Z,9.10
2019-02-28T23:31:27.863Z,9.20
2019-02-28T23:34:01.568Z,9.30
2019-02-28T23:36:31.072Z,9.40
2019-02-28T23:39:00.954Z,9.40
2019-02-28T23:41:30.873Z,9.50
2019-02-28T23:44:00.815Z,9.50
2019-02-28T23:46:30.711Z,9.30
2019-02-28T23:49:00.643Z,9.40
2019-02-28T23:51:30.539Z,9.40
2019-02-28T23:54:00.419Z,9.20
2019-02-28T23:56:30.387Z,9.20
2019-02-28T23:59:00.271Z,9.10
